KFY1069 SJRG-SSBN
Flight info
| Callsign | KFY1069 |
|---|---|
| Flight time | 0h 53m |
| Altitude | 6500 |
| Route | DCT 3122S05158W 3023S05107W DCT |
| Aircraft | B58T/L-SDFGRY/C |
Departure
| Time | 2026-05-06 16:59 |
|---|---|
| Airport | Rio Grande Regional Airport (SJRG) |
Arrival
| Time | 2026-05-06 17:52 |
|---|---|
| Airport | Belém Novo Airport (SSBN) |
| Time | Latitude | Longitude | Altitude | Speed | Heading |
|---|---|---|---|---|---|
| 2026-05-06 16:45 | -32.08251 | -52.16359 | 28 ft | 0 kts | 312° |
| 2026-05-06 16:53 | -32.08214 | -52.16347 | 26 ft | 11 kts | 42° |
| 2026-05-06 16:53 | -32.08152 | -52.16366 | 32 ft | 12 kts | 313° |
| 2026-05-06 16:54 | -32.08115 | -52.16411 | 34 ft | 0 kts | 313° |
| 2026-05-06 16:55 | -32.08095 | -52.16437 | 34 ft | 10 kts | 305° |
| 2026-05-06 16:56 | -32.08157 | -52.16544 | 32 ft | 24 kts | 224° |
| 2026-05-06 16:56 | -32.08269 | -52.16674 | 30 ft | 23 kts | 224° |
| 2026-05-06 16:56 | -32.08389 | -52.16810 | 27 ft | 25 kts | 224° |
| 2026-05-06 16:56 | -32.08510 | -52.16950 | 30 ft | 22 kts | 224° |
| 2026-05-06 16:57 | -32.08626 | -52.17082 | 31 ft | 24 kts | 224° |
| 2026-05-06 16:57 | -32.08727 | -52.17198 | 34 ft | 17 kts | 224° |
| 2026-05-06 16:57 | -32.08795 | -52.17292 | 32 ft | 9 kts | 240° |
| 2026-05-06 16:57 | -32.08798 | -52.17279 | 32 ft | 4 kts | 40° |
| 2026-05-06 16:58 | -32.08792 | -52.17272 | 33 ft | 0 kts | 44° |
| 2026-05-06 16:58 | -32.08783 | -52.17263 | 33 ft | 14 kts | 44° |
| 2026-05-06 16:58 | -32.08511 | -52.16949 | 30 ft | 90 kts | 44° |
| 2026-05-06 16:59 | -32.07977 | -52.16337 | 167 ft | 117 kts | 44° |
| 2026-05-06 16:59 | -32.07379 | -52.15654 | 541 ft | 118 kts | 43° |
| 2026-05-06 16:59 | -32.06791 | -52.14995 | 943 ft | 119 kts | 38° |
| 2026-05-06 16:59 | -32.06207 | -52.14270 | 1315 ft | 123 kts | 41° |
| 2026-05-06 17:00 | -32.05638 | -52.13479 | 1646 ft | 130 kts | 40° |
| 2026-05-06 17:00 | -32.05006 | -52.12685 | 1981 ft | 135 kts | 38° |
| 2026-05-06 17:00 | -32.04308 | -52.11926 | 2260 ft | 138 kts | 19° |
| 2026-05-06 17:00 | -32.03397 | -52.11538 | 2495 ft | 141 kts | 12° |
| 2026-05-06 17:01 | -32.02465 | -52.11152 | 2659 ft | 142 kts | 12° |
| 2026-05-06 17:01 | -32.01530 | -52.10769 | 2816 ft | 142 kts | 11° |
| 2026-05-06 17:01 | -32.00575 | -52.10491 | 2953 ft | 141 kts | 6° |
| 2026-05-06 17:01 | -31.99612 | -52.10238 | 3121 ft | 143 kts | 6° |
| 2026-05-06 17:02 | -31.98639 | -52.09984 | 3279 ft | 144 kts | 6° |
| 2026-05-06 17:02 | -31.97659 | -52.09736 | 3397 ft | 145 kts | 5° |
| 2026-05-06 17:02 | -31.96674 | -52.09478 | 3511 ft | 145 kts | 6° |
| 2026-05-06 17:02 | -31.95690 | -52.09221 | 3625 ft | 142 kts | 6° |
| 2026-05-06 17:03 | -31.94749 | -52.08984 | 3696 ft | 136 kts | 6° |
| 2026-05-06 17:03 | -31.93806 | -52.08751 | 3782 ft | 144 kts | 6° |
| 2026-05-06 17:03 | -31.92800 | -52.08507 | 3900 ft | 147 kts | 6° |
| 2026-05-06 17:03 | -31.91796 | -52.08259 | 4023 ft | 148 kts | 6° |
| 2026-05-06 17:04 | -31.90785 | -52.08011 | 4151 ft | 149 kts | 6° |
| 2026-05-06 17:04 | -31.89770 | -52.07763 | 4275 ft | 149 kts | 5° |
| 2026-05-06 17:04 | -31.88750 | -52.07500 | 4402 ft | 150 kts | 6° |
| 2026-05-06 17:04 | -31.87742 | -52.07240 | 4522 ft | 151 kts | 6° |
| 2026-05-06 17:05 | -31.86717 | -52.06974 | 4680 ft | 151 kts | 5° |
| 2026-05-06 17:05 | -31.85690 | -52.06702 | 4804 ft | 152 kts | 6° |
| 2026-05-06 17:05 | -31.84656 | -52.06434 | 4894 ft | 153 kts | 6° |
| 2026-05-06 17:05 | -31.83614 | -52.06176 | 5024 ft | 153 kts | 6° |
| 2026-05-06 17:06 | -31.82567 | -52.05917 | 5173 ft | 154 kts | 6° |
| 2026-05-06 17:06 | -31.81515 | -52.05648 | 5325 ft | 155 kts | 6° |
| 2026-05-06 17:06 | -31.80473 | -52.05347 | 5462 ft | 154 kts | 5° |
| 2026-05-06 17:06 | -31.79443 | -52.05019 | 5595 ft | 153 kts | 6° |
| 2026-05-06 17:07 | -31.78417 | -52.04691 | 5726 ft | 153 kts | 6° |
| 2026-05-06 17:07 | -31.77395 | -52.04368 | 5862 ft | 151 kts | 6° |
| 2026-05-06 17:07 | -31.76381 | -52.04060 | 5996 ft | 150 kts | 6° |
| 2026-05-06 17:07 | -31.75369 | -52.03754 | 6126 ft | 150 kts | 6° |
| 2026-05-06 17:08 | -31.74357 | -52.03447 | 6250 ft | 151 kts | 6° |
| 2026-05-06 17:08 | -31.73342 | -52.03136 | 6383 ft | 151 kts | 6° |
| 2026-05-06 17:08 | -31.72324 | -52.02822 | 6506 ft | 151 kts | 6° |
| 2026-05-06 17:08 | -31.71303 | -52.02508 | 6629 ft | 152 kts | 6° |
| 2026-05-06 17:09 | -31.70279 | -52.02194 | 6751 ft | 152 kts | 6° |
| 2026-05-06 17:09 | -31.69252 | -52.01878 | 6873 ft | 153 kts | 6° |
| 2026-05-06 17:09 | -31.68221 | -52.01561 | 6993 ft | 153 kts | 6° |
| 2026-05-06 17:09 | -31.67187 | -52.01243 | 7112 ft | 154 kts | 6° |
| 2026-05-06 17:10 | -31.66151 | -52.00924 | 7234 ft | 154 kts | 6° |
| 2026-05-06 17:10 | -31.65112 | -52.00605 | 7355 ft | 155 kts | 5° |
| 2026-05-06 17:10 | -31.64070 | -52.00285 | 7471 ft | 156 kts | 5° |
| 2026-05-06 17:10 | -31.62999 | -51.99962 | 7486 ft | 162 kts | 6° |
| 2026-05-06 17:11 | -31.61891 | -51.99634 | 7504 ft | 166 kts | 6° |
| 2026-05-06 17:11 | -31.60775 | -51.99308 | 7503 ft | 169 kts | 6° |
| 2026-05-06 17:11 | -31.59632 | -51.98978 | 7504 ft | 170 kts | 5° |
| 2026-05-06 17:11 | -31.58484 | -51.98648 | 7505 ft | 170 kts | 5° |
| 2026-05-06 17:12 | -31.57333 | -51.98317 | 7505 ft | 170 kts | 5° |
| 2026-05-06 17:12 | -31.56182 | -51.97992 | 7498 ft | 170 kts | 6° |
| 2026-05-06 17:12 | -31.55033 | -51.97677 | 7499 ft | 169 kts | 6° |
| 2026-05-06 17:12 | -31.53885 | -51.97362 | 7500 ft | 169 kts | 5° |
| 2026-05-06 17:13 | -31.52737 | -51.97047 | 7501 ft | 169 kts | 5° |
| 2026-05-06 17:13 | -31.51589 | -51.96732 | 7504 ft | 169 kts | 5° |
| 2026-05-06 17:13 | -31.50441 | -51.96417 | 7503 ft | 170 kts | 6° |
| 2026-05-06 17:13 | -31.49289 | -51.96104 | 7503 ft | 170 kts | 5° |
| 2026-05-06 17:14 | -31.48136 | -51.95792 | 7504 ft | 170 kts | 5° |
| 2026-05-06 17:14 | -31.46980 | -51.95486 | 7504 ft | 170 kts | 4° |
| 2026-05-06 17:14 | -31.45821 | -51.95259 | 7505 ft | 169 kts | 1° |
| 2026-05-06 17:14 | -31.44661 | -51.95048 | 7506 ft | 169 kts | 1° |
| 2026-05-06 17:15 | -31.43502 | -51.94838 | 7506 ft | 168 kts | 1° |
| 2026-05-06 17:15 | -31.42344 | -51.94623 | 7506 ft | 168 kts | 1° |
| 2026-05-06 17:15 | -31.41188 | -51.94408 | 7506 ft | 168 kts | 1° |
| 2026-05-06 17:15 | -31.40034 | -51.94196 | 7506 ft | 168 kts | 1° |
| 2026-05-06 17:16 | -31.39267 | -51.94056 | 7505 ft | 168 kts | 1° |
| 2026-05-06 17:16 | -31.38118 | -51.93676 | 7503 ft | 176 kts | 21° |
| 2026-05-06 17:16 | -31.37077 | -51.92901 | 7504 ft | 178 kts | 25° |
| 2026-05-06 17:16 | -31.36059 | -51.92115 | 7505 ft | 178 kts | 25° |
| 2026-05-06 17:17 | -31.35027 | -51.91318 | 7505 ft | 178 kts | 25° |
| 2026-05-06 17:17 | -31.33995 | -51.90525 | 7507 ft | 178 kts | 25° |
| 2026-05-06 17:17 | -31.32961 | -51.89728 | 7512 ft | 178 kts | 25° |
| 2026-05-06 17:17 | -31.31923 | -51.88932 | 7507 ft | 179 kts | 25° |
| 2026-05-06 17:18 | -31.30885 | -51.88130 | 7507 ft | 180 kts | 25° |
| 2026-05-06 17:18 | -31.29845 | -51.87326 | 7506 ft | 179 kts | 25° |
| 2026-05-06 17:18 | -31.28810 | -51.86525 | 7508 ft | 178 kts | 25° |
| 2026-05-06 17:18 | -31.27776 | -51.85724 | 7509 ft | 179 kts | 25° |
| 2026-05-06 17:19 | -31.26738 | -51.84928 | 7510 ft | 178 kts | 25° |
| 2026-05-06 17:19 | -31.25701 | -51.84131 | 7509 ft | 179 kts | 25° |
| 2026-05-06 17:19 | -31.24662 | -51.83335 | 7508 ft | 179 kts | 25° |
| 2026-05-06 17:19 | -31.23624 | -51.82543 | 7508 ft | 178 kts | 25° |
| 2026-05-06 17:20 | -31.22589 | -51.81746 | 7510 ft | 178 kts | 25° |
| 2026-05-06 17:20 | -31.21548 | -51.80952 | 7510 ft | 179 kts | 25° |
| 2026-05-06 17:20 | -31.20510 | -51.80159 | 7500 ft | 178 kts | 25° |
| 2026-05-06 17:20 | -31.19473 | -51.79371 | 7505 ft | 178 kts | 25° |
| 2026-05-06 17:21 | -31.18434 | -51.78587 | 7507 ft | 178 kts | 25° |
| 2026-05-06 17:21 | -31.17395 | -51.77801 | 7508 ft | 178 kts | 25° |
| 2026-05-06 17:21 | -31.16352 | -51.77018 | 7508 ft | 178 kts | 25° |
| 2026-05-06 17:21 | -31.15310 | -51.76229 | 7510 ft | 179 kts | 25° |
| 2026-05-06 17:22 | -31.14263 | -51.75441 | 7509 ft | 179 kts | 25° |
| 2026-05-06 17:22 | -31.13214 | -51.74655 | 7509 ft | 179 kts | 25° |
| 2026-05-06 17:22 | -31.12169 | -51.73872 | 7505 ft | 178 kts | 25° |
| 2026-05-06 17:22 | -31.11125 | -51.73092 | 7508 ft | 178 kts | 25° |
| 2026-05-06 17:23 | -31.10100 | -51.72258 | 7507 ft | 181 kts | 29° |
| 2026-05-06 17:23 | -31.09111 | -51.71346 | 7506 ft | 181 kts | 31° |
| 2026-05-06 17:23 | -31.08129 | -51.70425 | 7508 ft | 181 kts | 31° |
| 2026-05-06 17:23 | -31.07147 | -51.69501 | 7511 ft | 181 kts | 31° |
| 2026-05-06 17:24 | -31.06166 | -51.68579 | 7510 ft | 181 kts | 31° |
| 2026-05-06 17:24 | -31.05188 | -51.67659 | 7507 ft | 180 kts | 31° |
| 2026-05-06 17:24 | -31.04211 | -51.66738 | 7506 ft | 180 kts | 31° |
| 2026-05-06 17:24 | -31.03237 | -51.65822 | 7508 ft | 180 kts | 31° |
| 2026-05-06 17:25 | -31.02262 | -51.64900 | 7507 ft | 181 kts | 31° |
| 2026-05-06 17:25 | -31.01282 | -51.63981 | 7507 ft | 181 kts | 31° |
| 2026-05-06 17:25 | -31.00307 | -51.63056 | 7501 ft | 180 kts | 31° |
| 2026-05-06 17:25 | -30.99341 | -51.62132 | 7499 ft | 179 kts | 31° |
| 2026-05-06 17:26 | -30.98375 | -51.61208 | 7501 ft | 180 kts | 31° |
| 2026-05-06 17:26 | -30.97407 | -51.60279 | 7502 ft | 180 kts | 31° |
| 2026-05-06 17:26 | -30.96451 | -51.59364 | 7503 ft | 180 kts | 31° |
| 2026-05-06 17:26 | -30.95468 | -51.58421 | 7501 ft | 180 kts | 31° |
| 2026-05-06 17:27 | -30.94501 | -51.57492 | 7501 ft | 180 kts | 31° |
| 2026-05-06 17:27 | -30.93533 | -51.56570 | 7497 ft | 180 kts | 31° |
| 2026-05-06 17:27 | -30.92569 | -51.55663 | 7497 ft | 181 kts | 31° |
| 2026-05-06 17:27 | -30.91568 | -51.54726 | 7501 ft | 183 kts | 31° |
| 2026-05-06 17:28 | -30.90577 | -51.53800 | 7497 ft | 183 kts | 31° |
| 2026-05-06 17:28 | -30.89577 | -51.52896 | 7501 ft | 181 kts | 28° |
| 2026-05-06 17:28 | -30.88545 | -51.52058 | 7494 ft | 181 kts | 27° |
| 2026-05-06 17:28 | -30.87511 | -51.51225 | 7499 ft | 180 kts | 27° |
| 2026-05-06 17:29 | -30.86480 | -51.50390 | 7502 ft | 181 kts | 27° |
| 2026-05-06 17:29 | -30.85446 | -51.49554 | 7497 ft | 180 kts | 27° |
| 2026-05-06 17:29 | -30.84422 | -51.48728 | 7496 ft | 178 kts | 27° |
| 2026-05-06 17:29 | -30.83418 | -51.47921 | 7497 ft | 178 kts | 27° |
| 2026-05-06 17:30 | -30.82397 | -51.47098 | 7493 ft | 179 kts | 27° |
| 2026-05-06 17:30 | -30.81377 | -51.46272 | 7493 ft | 179 kts | 27° |
| 2026-05-06 17:30 | -30.80358 | -51.45446 | 7494 ft | 179 kts | 27° |
| 2026-05-06 17:30 | -30.79336 | -51.44624 | 7494 ft | 179 kts | 27° |
| 2026-05-06 17:31 | -30.78311 | -51.43802 | 7486 ft | 179 kts | 27° |
| 2026-05-06 17:31 | -30.77286 | -51.42982 | 7489 ft | 180 kts | 27° |
| 2026-05-06 17:31 | -30.76254 | -51.42157 | 7485 ft | 180 kts | 27° |
| 2026-05-06 17:31 | -30.75218 | -51.41326 | 7491 ft | 182 kts | 27° |
| 2026-05-06 17:32 | -30.74183 | -51.40495 | 7491 ft | 180 kts | 27° |
| 2026-05-06 17:32 | -30.73154 | -51.39665 | 7489 ft | 180 kts | 27° |
| 2026-05-06 17:32 | -30.72128 | -51.38840 | 7491 ft | 179 kts | 27° |
| 2026-05-06 17:32 | -30.71105 | -51.38019 | 7489 ft | 179 kts | 27° |
| 2026-05-06 17:33 | -30.70080 | -51.37201 | 7489 ft | 179 kts | 27° |
| 2026-05-06 17:33 | -30.69053 | -51.36384 | 7479 ft | 179 kts | 27° |
| 2026-05-06 17:33 | -30.68021 | -51.35571 | 7478 ft | 180 kts | 27° |
| 2026-05-06 17:33 | -30.66985 | -51.34755 | 7478 ft | 180 kts | 27° |
| 2026-05-06 17:34 | -30.65946 | -51.33940 | 7479 ft | 180 kts | 27° |
| 2026-05-06 17:34 | -30.64904 | -51.33127 | 7471 ft | 181 kts | 26° |
| 2026-05-06 17:34 | -30.63859 | -51.32312 | 7478 ft | 181 kts | 26° |
| 2026-05-06 17:34 | -30.62811 | -51.31496 | 7477 ft | 181 kts | 27° |
| 2026-05-06 17:35 | -30.61761 | -51.30679 | 7479 ft | 183 kts | 27° |
| 2026-05-06 17:35 | -30.60703 | -51.29860 | 7480 ft | 183 kts | 27° |
| 2026-05-06 17:35 | -30.59647 | -51.29043 | 7478 ft | 182 kts | 26° |
| 2026-05-06 17:36 | -30.57533 | -51.27409 | 7478 ft | 183 kts | 27° |
| 2026-05-06 17:36 | -30.56476 | -51.26592 | 7480 ft | 183 kts | 26° |
| 2026-05-06 17:36 | -30.55418 | -51.25775 | 7477 ft | 183 kts | 26° |
| 2026-05-06 17:36 | -30.54359 | -51.24958 | 7481 ft | 183 kts | 26° |
| 2026-05-06 17:37 | -30.53302 | -51.24140 | 7478 ft | 183 kts | 27° |
| 2026-05-06 17:37 | -30.52244 | -51.23323 | 7481 ft | 183 kts | 26° |
| 2026-05-06 17:37 | -30.51186 | -51.22507 | 7478 ft | 183 kts | 26° |
| 2026-05-06 17:37 | -30.50127 | -51.21690 | 7482 ft | 183 kts | 26° |
| 2026-05-06 17:38 | -30.49070 | -51.20871 | 7482 ft | 183 kts | 26° |
| 2026-05-06 17:38 | -30.48013 | -51.20054 | 7479 ft | 183 kts | 26° |
| 2026-05-06 17:38 | -30.46965 | -51.19240 | 7447 ft | 178 kts | 27° |
| 2026-05-06 17:38 | -30.45962 | -51.18457 | 7195 ft | 170 kts | 26° |
| 2026-05-06 17:39 | -30.45005 | -51.17700 | 6945 ft | 164 kts | 26° |
| 2026-05-06 17:39 | -30.44081 | -51.16962 | 6700 ft | 160 kts | 26° |
| 2026-05-06 17:39 | -30.43175 | -51.16231 | 6428 ft | 158 kts | 26° |
| 2026-05-06 17:39 | -30.42273 | -51.15500 | 6130 ft | 158 kts | 26° |
| 2026-05-06 17:40 | -30.41378 | -51.14770 | 5837 ft | 157 kts | 26° |
| 2026-05-06 17:40 | -30.40491 | -51.14048 | 5546 ft | 154 kts | 25° |
| 2026-05-06 17:40 | -30.39538 | -51.13690 | 5258 ft | 143 kts | 1° |
| 2026-05-06 17:40 | -30.38558 | -51.13548 | 4967 ft | 143 kts | 358° |
| 2026-05-06 17:41 | -30.37515 | -51.13473 | 4702 ft | 156 kts | 356° |
| 2026-05-06 17:41 | -30.36420 | -51.13412 | 4498 ft | 158 kts | 356° |
| 2026-05-06 17:41 | -30.35332 | -51.13356 | 4384 ft | 155 kts | 354° |
| 2026-05-06 17:41 | -30.34265 | -51.13421 | 4264 ft | 152 kts | 349° |
| 2026-05-06 17:42 | -30.33225 | -51.13592 | 4144 ft | 150 kts | 344° |
| 2026-05-06 17:42 | -30.32218 | -51.13853 | 4023 ft | 147 kts | 342° |
| 2026-05-06 17:42 | -30.31229 | -51.14136 | 3903 ft | 146 kts | 342° |
| 2026-05-06 17:42 | -30.30246 | -51.14453 | 3782 ft | 147 kts | 340° |
| 2026-05-06 17:43 | -30.29269 | -51.14792 | 3664 ft | 147 kts | 339° |
| 2026-05-06 17:43 | -30.28292 | -51.15135 | 3546 ft | 147 kts | 339° |
| 2026-05-06 17:43 | -30.27315 | -51.15480 | 3428 ft | 147 kts | 339° |
| 2026-05-06 17:43 | -30.26339 | -51.15827 | 3310 ft | 147 kts | 339° |
| 2026-05-06 17:44 | -30.25365 | -51.16174 | 3191 ft | 146 kts | 340° |
| 2026-05-06 17:44 | -30.24397 | -51.16524 | 3069 ft | 146 kts | 339° |
| 2026-05-06 17:44 | -30.23433 | -51.16877 | 2947 ft | 145 kts | 339° |
| 2026-05-06 17:44 | -30.22466 | -51.17237 | 2819 ft | 146 kts | 339° |
| 2026-05-06 17:45 | -30.21498 | -51.17562 | 2699 ft | 144 kts | 341° |
| 2026-05-06 17:45 | -30.20531 | -51.17872 | 2580 ft | 145 kts | 341° |
| 2026-05-06 17:45 | -30.19570 | -51.18184 | 2475 ft | 141 kts | 341° |
| 2026-05-06 17:45 | -30.18652 | -51.18479 | 2461 ft | 134 kts | 341° |
| 2026-05-06 17:46 | -30.17749 | -51.18770 | 2464 ft | 136 kts | 341° |
| 2026-05-06 17:46 | -30.16844 | -51.19054 | 2464 ft | 132 kts | 342° |
| 2026-05-06 17:46 | -30.15963 | -51.19366 | 2466 ft | 133 kts | 340° |
| 2026-05-06 17:46 | -30.15086 | -51.19676 | 2466 ft | 130 kts | 342° |
| 2026-05-06 17:47 | -30.14196 | -51.19487 | 2469 ft | 145 kts | 31° |
| 2026-05-06 17:47 | -30.13639 | -51.18464 | 2473 ft | 152 kts | 58° |
| 2026-05-06 17:47 | -30.13271 | -51.17382 | 2494 ft | 143 kts | 60° |
| 2026-05-06 17:47 | -30.12883 | -51.16285 | 2382 ft | 150 kts | 60° |
| 2026-05-06 17:48 | -30.12448 | -51.15177 | 2263 ft | 153 kts | 59° |
| 2026-05-06 17:48 | -30.12005 | -51.14041 | 2144 ft | 156 kts | 60° |
| 2026-05-06 17:48 | -30.11579 | -51.12897 | 2018 ft | 156 kts | 67° |
| 2026-05-06 17:48 | -30.11678 | -51.11679 | 1885 ft | 156 kts | 118° |
| 2026-05-06 17:49 | -30.12491 | -51.10849 | 1771 ft | 160 kts | 147° |
| 2026-05-06 17:49 | -30.13458 | -51.10196 | 1650 ft | 162 kts | 149° |
| 2026-05-06 17:49 | -30.14418 | -51.09540 | 1527 ft | 157 kts | 148° |
| 2026-05-06 17:49 | -30.15374 | -51.09314 | 1535 ft | 134 kts | 196° |
| 2026-05-06 17:50 | -30.16106 | -51.09837 | 1418 ft | 118 kts | 237° |
| 2026-05-06 17:50 | -30.16526 | -51.10636 | 1308 ft | 114 kts | 251° |
| 2026-05-06 17:50 | -30.16849 | -51.11467 | 1205 ft | 115 kts | 252° |
| 2026-05-06 17:50 | -30.17163 | -51.12298 | 1075 ft | 112 kts | 252° |
| 2026-05-06 17:51 | -30.17442 | -51.13132 | 918 ft | 109 kts | 255° |
| 2026-05-06 17:51 | -30.17672 | -51.13953 | 812 ft | 106 kts | 260° |
| 2026-05-06 17:51 | -30.17880 | -51.14779 | 663 ft | 109 kts | 257° |
| 2026-05-06 17:51 | -30.18129 | -51.15610 | 556 ft | 110 kts | 255° |
| 2026-05-06 17:52 | -30.18385 | -51.16428 | 383 ft | 107 kts | 252° |
| 2026-05-06 17:52 | -30.18612 | -51.17240 | 165 ft | 106 kts | 255° |
| 2026-05-06 17:52 | -30.18829 | -51.17979 | 10 ft | 79 kts | 252° |
| 2026-05-06 17:52 | -30.18911 | -51.18244 | 15 ft | 5 kts | 252° |
| 2026-05-06 17:53 | -30.18899 | -51.18222 | 15 ft | 10 kts | 86° |
| 2026-05-06 17:53 | -30.18859 | -51.18205 | 15 ft | 0 kts | 339° |
| 2026-05-06 17:53 | -30.18827 | -51.18216 | 16 ft | 10 kts | 353° |
| 2026-05-06 17:53 | -30.18783 | -51.18136 | 15 ft | 12 kts | 71° |
| 2026-05-06 17:54 | -30.18725 | -51.18118 | 15 ft | 13 kts | 59° |
| 2026-05-06 17:54 | -30.18716 | -51.18041 | 15 ft | 6 kts | 173° |
| 2026-05-06 17:54 | -30.18718 | -51.18041 | 14 ft | 0 kts | 194° |